KGOK

Details ICAO KGOK
Name GUTHRIE MUNI
Region United States
Timezone America/Chicago (UTC-5.0)
Plans Departing 11
Arriving 2
Stats Elevation 1,068 ft / 326 m (AMSL)
Location 35.849806° -97.415607°
Runways 1
Magnetic Variation 3.610° E
Sunrise 2018-05-27 11:18:08 UTC / 2018-05-27 06:18:08 Local
Sunset 2018-05-28 01:38:27 UTC / 2018-05-27 20:38:27 Local
Advertisement - Login to hide

Runways

ID Width Length Bearing (true) Bearing (mag) Surface Threshold Offset Overrun Length
16 75 ft / 23 m 4,110 ft / 1,253 m 164.95° 161.34° Concrete 0 ft / 0 m 0 ft / 0 m
34 75 ft / 23 m 4,110 ft / 1,253 m 344.95° 341.34° Concrete 0 ft / 0 m 0 ft / 0 m

Map

Weather


0- 5 10 15 20 25 30 35+ Temperature / ° C

Clouds and Precipitation
Forecast for 2018-05-27 18:00 UTC. Updated an hour ago

Ground ~20,000 ft ~40,000 ft Winds

METAR

KGOK 271753Z AUTO 16009KT 10SM CLR 32/22 A2987 RMK AO2 SLP104 T03170222 10317 20217 58008

TAF

Not found

Frequencies

Recorded 133.97 MHz ASOS
Approach 124.20 MHz OKE CITY APP/DEP
Unicom 122.80 MHz CTAF/UNICOM
Warning: Do not use this data for real-world aviation or navigation. No guarantee of current accuracy is given.